Time;durP1;ratioP1;P1;durP2;ratioP2;P2;SDS_P1;SDS_P2;PMS_P1;PMS_P2;Temp;Humidity;BMP_temperature;BMP_pressure;BME280_temperature;BME280_humidity;BME280_pressure;Samples;Min_cycle;Max_cycle;Signal;HPM_P1;HPM_P2
2023/05/03 00:00:09;;;;;;;3.20;2.00;;;9.10;99.90;;;;;;5023114;28;20443;-67
2023/05/03 00:02:37;;;;;;;3.13;2.40;;;9.10;99.90;;;;;;5027032;28;20256;-67
2023/05/03 00:05:04;;;;;;;2.70;2.20;;;9.10;99.90;;;;;;5024524;28;21611;-68
2023/05/03 00:07:29;;;;;;;2.60;2.00;;;9.00;99.90;;;;;;5027441;28;20987;-68
2023/05/03 00:09:56;;;;;;;3.13;2.00;;;9.00;99.90;;;;;;5029194;28;20414;-67
2023/05/03 00:12:21;;;;;;;4.77;2.23;;;9.00;99.90;;;;;;5023945;28;20176;-67
2023/05/03 00:14:47;;;;;;;2.70;2.10;;;8.90;99.90;;;;;;5025742;28;20438;-68
2023/05/03 00:17:12;;;;;;;2.40;2.20;;;8.80;99.90;;;;;;5029361;28;20205;-68
2023/05/03 00:19:38;;;;;;;5.07;2.80;;;8.80;99.90;;;;;;5019646;28;20177;-68
2023/05/03 00:22:04;;;;;;;4.07;2.77;;;8.80;99.90;;;;;;5020882;28;20189;-67
2023/05/03 00:24:30;;;;;;;5.47;2.20;;;8.70;99.90;;;;;;5027560;28;20911;-68
2023/05/03 00:26:55;;;;;;;3.13;2.83;;;8.70;99.90;;;;;;5019048;28;20181;-67
2023/05/03 00:29:21;;;;;;;4.30;2.23;;;8.60;99.90;;;;;;5028661;28;20544;-68
2023/05/03 00:31:47;;;;;;;2.30;2.07;;;8.60;99.90;;;;;;5030024;28;20177;-68
2023/05/03 00:34:13;;;;;;;6.37;2.23;;;8.50;99.90;;;;;;5029179;28;20452;-68
2023/05/03 00:36:39;;;;;;;3.93;2.13;;;8.40;99.90;;;;;;5033413;28;20255;-68
2023/05/03 00:39:04;;;;;;;4.07;2.40;;;8.40;99.90;;;;;;5027764;28;20186;-67
2023/05/03 00:41:30;;;;;;;5.80;2.40;;;8.30;99.90;;;;;;5028731;28;20423;-67
2023/05/03 00:43:56;;;;;;;2.87;1.90;;;8.30;99.90;;;;;;5030757;28;20721;-68
2023/05/03 00:46:21;;;;;;;2.97;2.63;;;8.20;99.90;;;;;;5027365;28;20188;-68
2023/05/03 00:48:48;;;;;;;4.13;2.50;;;8.20;99.90;;;;;;5030333;28;20280;-68
2023/05/03 00:51:14;;;;;;;5.30;2.23;;;8.20;99.90;;;;;;5029914;28;20175;-68
2023/05/03 00:53:43;;;;;;;2.97;2.40;;;8.10;99.90;;;;;;5022449;28;20471;-67
2023/05/03 00:56:10;;;;;;;2.70;1.90;;;8.10;99.90;;;;;;5020500;28;20484;-68
2023/05/03 00:58:38;;;;;;;3.07;2.43;;;8.00;99.90;;;;;;5006053;28;20411;-68
2023/05/03 01:01:06;;;;;;;2.23;1.97;;;7.90;99.90;;;;;;5032827;28;20414;-68
2023/05/03 01:03:35;;;;;;;3.43;2.53;;;7.90;99.90;;;;;;5029726;28;20633;-68
2023/05/03 01:06:31;;;;;;;3.63;2.70;;;7.80;99.90;;;;;;5032815;28;20438;-68
2023/05/03 01:09:26;;;;;;;3.40;2.77;;;7.70;99.90;;;;;;5026389;28;20555;-67
2023/05/03 01:12:13;;;;;;;4.20;3.20;;;7.60;99.90;;;;;;5023922;28;20867;-68
2023/05/03 01:14:42;;;;;;;6.10;2.77;;;7.50;99.90;;;;;;5028600;28;20430;-67
2023/05/03 01:17:11;;;;;;;3.80;2.80;;;7.50;99.90;;;;;;5032120;28;20430;-67
2023/05/03 01:19:53;;;;;;;5.03;2.30;;;7.40;99.90;;;;;;5029664;28;20414;-68
2023/05/03 01:22:43;;;;;;;4.83;2.30;;;7.40;99.90;;;;;;5019830;28;20514;-68
2023/05/03 01:25:10;;;;;;;3.40;2.70;;;7.40;99.90;;;;;;5016193;28;20476;-67
2023/05/03 01:27:37;;;;;;;3.13;2.77;;;7.30;99.90;;;;;;5024840;28;20550;-67
2023/05/03 01:30:08;;;;;;;3.03;2.70;;;7.20;99.90;;;;;;5027931;28;20447;-68
2023/05/03 01:32:42;;;;;;;5.30;2.43;;;7.20;99.90;;;;;;5032334;28;20422;-67
2023/05/03 01:35:29;;;;;;;3.73;2.93;;;7.20;99.90;;;;;;5029018;28;20418;-67
2023/05/03 01:37:56;;;;;;;4.70;2.70;;;7.10;99.90;;;;;;5025802;28;20422;-68
2023/05/03 01:40:24;;;;;;;2.63;2.43;;;7.10;99.90;;;;;;5023902;28;20488;-68
2023/05/03 01:42:51;;;;;;;3.20;1.90;;;7.10;99.90;;;;;;5025712;28;20577;-68
2023/05/03 01:45:17;;;;;;;6.13;3.93;;;7.00;99.90;;;;;;5032078;28;20415;-67
2023/05/03 01:47:43;;;;;;;2.53;2.30;;;6.90;99.90;;;;;;5026569;28;20458;-67
2023/05/03 01:50:09;;;;;;;5.20;2.80;;;6.90;99.90;;;;;;5029800;28;20451;-68
2023/05/03 01:52:34;;;;;;;6.20;2.90;;;6.80;99.90;;;;;;5027202;28;20168;-66
2023/05/03 01:55:00;;;;;;;4.90;2.57;;;6.80;99.90;;;;;;5028758;28;20415;-67
2023/05/03 01:57:26;;;;;;;7.10;2.63;;;6.70;99.90;;;;;;5031875;28;20661;-67
2023/05/03 01:59:51;;;;;;;4.43;3.30;;;6.70;99.90;;;;;;5030868;28;20186;-68
2023/05/03 02:02:17;;;;;;;3.93;2.77;;;6.70;99.90;;;;;;5028794;28;20185;-67
2023/05/03 02:04:42;;;;;;;3.97;2.37;;;6.70;99.90;;;;;;5025931;28;20579;-67
2023/05/03 02:07:08;;;;;;;4.63;2.20;;;6.60;99.90;;;;;;5029166;28;20180;-68
2023/05/03 02:09:33;;;;;;;5.63;3.20;;;6.60;99.90;;;;;;5026679;28;20253;-68
2023/05/03 02:11:59;;;;;;;3.63;2.83;;;6.60;99.90;;;;;;5022942;28;20619;-68
2023/05/03 02:14:25;;;;;;;2.60;2.40;;;6.60;99.90;;;;;;5027959;28;20227;-68
2023/05/03 02:16:53;;;;;;;2.27;2.00;;;6.50;99.90;;;;;;5031698;28;20183;-68
2023/05/03 02:19:19;;;;;;;4.60;2.40;;;6.50;99.90;;;;;;5031950;28;20231;-67
2023/05/03 02:21:44;;;;;;;3.10;2.33;;;6.40;99.90;;;;;;5026303;28;20936;-67
2023/05/03 02:24:10;;;;;;;4.73;2.50;;;6.40;99.90;;;;;;5029541;28;20200;-67
2023/05/03 02:26:36;;;;;;;4.27;2.67;;;6.40;99.90;;;;;;5033690;28;20204;-67
2023/05/03 02:29:01;;;;;;;2.83;2.60;;;6.30;99.90;;;;;;5023675;28;20900;-67
2023/05/03 02:31:27;;;;;;;2.70;2.33;;;6.30;99.90;;;;;;5032264;28;20172;-66
2023/05/03 02:33:53;;;;;;;8.63;2.33;;;6.20;99.90;;;;;;5024559;28;20216;-67
2023/05/03 02:36:19;;;;;;;4.63;3.10;;;6.20;99.90;;;;;;5022641;28;20188;-66
2023/05/03 02:38:46;;;;;;;4.60;2.43;;;6.10;99.90;;;;;;5016100;28;20478;-67
2023/05/03 02:41:12;;;;;;;6.87;3.17;;;6.10;99.90;;;;;;5026410;28;20755;-66
2023/05/03 02:43:37;;;;;;;6.30;2.47;;;6.10;99.90;;;;;;5024138;28;20452;-67
2023/05/03 02:46:03;;;;;;;4.67;2.53;;;6.00;99.90;;;;;;5020623;28;20272;-67
2023/05/03 02:48:29;;;;;;;8.67;2.70;;;6.00;99.90;;;;;;5025595;28;20223;-67
2023/05/03 02:50:54;;;;;;;9.50;3.23;;;5.90;99.90;;;;;;5027028;28;20237;-66
2023/05/03 02:53:20;;;;;;;10.53;3.47;;;5.90;99.90;;;;;;5023445;28;20271;-66
2023/05/03 02:55:46;;;;;;;4.07;2.63;;;5.90;99.90;;;;;;5027284;28;20602;-66
2023/05/03 02:58:11;;;;;;;6.03;2.80;;;5.80;99.90;;;;;;5030073;28;20454;-67
2023/05/03 03:00:37;;;;;;;3.40;2.80;;;5.80;99.90;;;;;;5017308;28;20177;-67
2023/05/03 03:03:03;;;;;;;5.60;3.30;;;5.80;99.90;;;;;;5027138;28;20253;-66
2023/05/03 03:05:28;;;;;;;2.83;2.60;;;5.70;99.90;;;;;;5021279;28;20171;-66
2023/05/03 03:07:54;;;;;;;5.53;2.80;;;5.70;99.90;;;;;;5030540;28;20207;-67
2023/05/03 03:10:19;;;;;;;4.00;3.03;;;5.70;99.90;;;;;;5024218;28;20179;-67
2023/05/03 03:12:45;;;;;;;5.37;3.40;;;5.60;99.90;;;;;;5027841;28;20221;-66
2023/05/03 03:15:12;;;;;;;3.97;3.10;;;5.60;99.90;;;;;;5030097;28;20176;-67
2023/05/03 03:17:38;;;;;;;5.47;2.43;;;5.60;99.90;;;;;;5027286;28;20179;-67
2023/05/03 03:20:11;;;;;;;3.83;3.03;;;5.60;99.90;;;;;;5028930;28;20427;-67
2023/05/03 03:22:37;;;;;;;6.47;3.10;;;5.60;99.90;;;;;;5020445;28;20419;-66
2023/05/03 03:25:04;;;;;;;7.87;3.30;;;5.50;99.90;;;;;;5028808;28;20421;-66
2023/05/03 03:27:30;;;;;;;4.20;2.33;;;5.60;99.90;;;;;;5023169;28;20459;-67
2023/05/03 03:29:55;;;;;;;4.10;2.63;;;5.50;99.90;;;;;;5010466;28;20421;-67
2023/05/03 03:32:21;;;;;;;4.57;2.70;;;5.50;99.90;;;;;;5025895;28;20612;-67
2023/05/03 03:34:47;;;;;;;9.37;3.17;;;5.50;99.90;;;;;;5027024;28;20222;-67
2023/05/03 03:37:12;;;;;;;5.77;3.30;;;5.50;99.90;;;;;;5030199;28;20460;-66
2023/05/03 03:39:39;;;;;;;2.67;2.20;;;5.50;99.90;;;;;;5026074;28;20207;-66
2023/05/03 03:42:05;;;;;;;3.43;3.13;;;5.50;99.90;;;;;;5030174;28;20179;-69
2023/05/03 03:44:31;;;;;;;3.00;2.70;;;5.50;99.90;;;;;;5022565;28;21037;-66
2023/05/03 03:46:56;;;;;;;8.33;3.80;;;5.50;99.90;;;;;;5028453;28;20421;-67
2023/05/03 03:49:22;;;;;;;6.93;2.63;;;5.50;99.90;;;;;;5026047;28;20183;-66
2023/05/03 03:51:47;;;;;;;6.33;2.93;;;5.50;99.90;;;;;;5014424;28;20223;-67
2023/05/03 03:54:13;;;;;;;3.67;3.30;;;5.40;99.90;;;;;;5029554;28;20212;-67
2023/05/03 03:56:39;;;;;;;8.00;3.53;;;5.40;99.90;;;;;;5022042;28;20176;-67
2023/05/03 03:59:05;;;;;;;6.83;3.30;;;5.40;99.90;;;;;;5029859;28;20175;-67
2023/05/03 04:01:31;;;;;;;5.63;2.90;;;5.40;99.90;;;;;;5022530;28;20168;-67
2023/05/03 04:03:56;;;;;;;3.43;2.93;;;5.40;99.90;;;;;;5020803;28;20439;-67
2023/05/03 04:06:22;;;;;;;5.07;3.87;;;5.50;99.90;;;;;;5026353;28;20176;-67
2023/05/03 04:08:47;;;;;;;4.77;3.37;;;5.50;99.90;;;;;;5014923;28;20675;-67
2023/05/03 04:11:13;;;;;;;7.90;3.10;;;5.50;99.90;;;;;;5032731;28;20186;-67
2023/05/03 04:13:38;;;;;;;6.37;2.90;;;5.50;99.90;;;;;;5018495;28;20196;-67
2023/05/03 04:16:07;;;;;;;3.63;2.87;;;5.50;99.90;;;;;;5024357;28;20709;-67
2023/05/03 04:18:33;;;;;;;12.30;3.63;;;5.60;99.90;;;;;;5027258;28;20172;-67
2023/05/03 04:20:59;;;;;;;7.77;3.40;;;5.60;99.90;;;;;;5023719;28;20411;-69
2023/05/03 04:23:25;;;;;;;7.30;3.67;;;5.60;99.90;;;;;;5028545;28;20286;-67
2023/05/03 04:25:51;;;;;;;6.30;2.70;;;5.70;99.90;;;;;;5029117;28;20820;-67
2023/05/03 04:28:17;;;;;;;4.93;3.27;;;5.70;99.90;;;;;;5033009;28;20206;-68
2023/05/03 04:30:46;;;;;;;10.00;3.13;;;5.80;99.90;;;;;;5027626;28;20429;-66
2023/05/03 04:33:12;;;;;;;5.70;3.03;;;5.80;99.90;;;;;;5025573;28;20524;-67
2023/05/03 04:35:38;;;;;;;7.00;3.70;;;5.80;99.90;;;;;;5023651;28;20404;-67
2023/05/03 04:38:04;;;;;;;8.63;3.60;;;5.90;99.90;;;;;;5032235;28;20924;-67
2023/05/03 04:40:29;;;;;;;5.97;3.70;;;5.90;99.90;;;;;;5033647;28;20617;-67
2023/05/03 04:42:56;;;;;;;6.90;3.63;;;6.00;99.90;;;;;;5027286;28;20204;-68
2023/05/03 04:45:22;;;;;;;6.00;3.60;;;6.00;99.90;;;;;;5028202;28;20180;-68
2023/05/03 04:47:48;;;;;;;5.07;3.43;;;6.10;99.90;;;;;;5032169;28;20471;-67
2023/05/03 04:50:14;;;;;;;4.60;3.57;;;6.20;99.90;;;;;;5029890;28;20485;-67
2023/05/03 04:52:39;;;;;;;6.27;3.30;;;6.20;99.90;;;;;;5033676;28;20505;-65
2023/05/03 04:55:05;;;;;;;6.17;3.33;;;6.30;99.90;;;;;;5029579;28;20180;-67
2023/05/03 04:57:32;;;;;;;4.63;2.40;;;6.30;99.90;;;;;;5033585;28;20654;-67
2023/05/03 04:59:58;;;;;;;9.73;3.57;;;6.40;99.90;;;;;;5024518;28;20454;-68
2023/05/03 05:02:23;;;;;;;3.90;2.87;;;6.40;99.90;;;;;;5028679;28;20440;-68
2023/05/03 05:04:49;;;;;;;5.07;3.17;;;6.60;99.90;;;;;;5018915;28;20176;-69
2023/05/03 05:07:15;;;;;;;4.30;3.17;;;6.60;99.90;;;;;;5025656;28;20258;-68
2023/05/03 05:09:41;;;;;;;4.03;3.07;;;6.70;99.90;;;;;;5033074;28;20416;-67
2023/05/03 05:12:07;;;;;;;6.17;3.10;;;6.80;99.90;;;;;;5033172;28;20917;-68
2023/05/03 05:14:32;;;;;;;8.03;3.47;;;7.00;99.90;;;;;;5033124;28;20255;-68
2023/05/03 05:16:58;;;;;;;5.80;3.00;;;7.00;99.90;;;;;;5004850;28;20173;-68
2023/05/03 05:19:24;;;;;;;5.63;3.33;;;7.40;99.90;;;;;;5028570;28;20218;-68
2023/05/03 05:21:51;;;;;;;13.83;3.47;;;7.80;99.90;;;;;;5016578;28;20417;-68
2023/05/03 05:24:16;;;;;;;13.37;4.40;;;8.90;99.90;;;;;;5028970;28;20223;-67
2023/05/03 05:26:42;;;;;;;4.17;3.13;;;9.00;99.90;;;;;;5026368;28;20410;-68
2023/05/03 05:29:08;;;;;;;7.83;3.97;;;9.50;99.90;;;;;;5030015;28;20226;-67
2023/05/03 05:31:35;;;;;;;7.90;3.63;;;10.00;99.90;;;;;;5033059;28;20247;-67
2023/05/03 05:34:00;;;;;;;5.23;3.07;;;10.20;99.90;;;;;;5024630;28;20212;-67
2023/05/03 05:36:26;;;;;;;6.13;2.73;;;9.70;99.90;;;;;;5015123;28;20619;-68
2023/05/03 05:38:52;;;;;;;5.60;2.67;;;9.90;99.90;;;;;;5031148;28;20196;-67
2023/05/03 05:41:17;;;;;;;5.40;3.47;;;10.50;99.90;;;;;;5028888;28;20292;-68
2023/05/03 05:43:44;;;;;;;7.47;3.53;;;10.70;99.90;;;;;;5019818;28;20206;-66
2023/05/03 05:46:10;;;;;;;4.20;2.40;;;11.00;99.90;;;;;;5024714;28;20633;-67
2023/05/03 05:48:36;;;;;;;3.83;2.20;;;11.50;99.90;;;;;;5026235;28;20464;-68
2023/05/03 05:51:01;;;;;;;4.47;2.93;;;11.90;99.90;;;;;;5028409;28;20415;-68
2023/05/03 05:53:27;;;;;;;8.80;3.33;;;11.70;99.90;;;;;;5032072;28;20196;-66
2023/05/03 05:55:53;;;;;;;5.10;3.13;;;12.40;99.90;;;;;;5032374;28;20175;-68
2023/05/03 05:58:19;;;;;;;6.20;2.67;;;12.10;99.90;;;;;;5012187;28;20185;-68
2023/05/03 06:00:47;;;;;;;4.53;2.90;;;12.10;99.90;;;;;;5020571;28;20418;-69
2023/05/03 06:03:14;;;;;;;3.53;2.77;;;12.90;99.90;;;;;;5022933;28;21020;-69
2023/05/03 06:05:40;;;;;;;7.37;2.70;;;13.00;99.90;;;;;;5030617;28;20480;-67
2023/05/03 06:08:06;;;;;;;8.60;2.30;;;13.70;99.90;;;;;;5029783;28;20459;-67
2023/05/03 06:10:32;;;;;;;3.90;3.33;;;13.70;99.90;;;;;;5020562;28;20460;-68
2023/05/03 06:12:58;;;;;;;4.03;2.00;;;14.90;99.10;;;;;;5025704;28;20249;-68
2023/05/03 06:15:23;;;;;;;4.37;2.30;;;14.10;98.60;;;;;;5015464;28;20406;-69
2023/05/03 06:17:49;;;;;;;4.03;1.70;;;14.90;97.60;;;;;;5024475;28;20515;-69
2023/05/03 06:20:15;;;;;;;2.93;2.17;;;14.90;97.90;;;;;;5009986;28;20222;-68
2023/05/03 06:22:41;;;;;;;5.10;2.50;;;15.30;97.30;;;;;;5031063;28;20667;-67
2023/05/03 06:25:07;;;;;;;3.50;3.03;;;15.40;96.80;;;;;;5030105;28;20524;-67
2023/05/03 06:27:33;;;;;;;4.00;2.23;;;14.90;95.50;;;;;;5013904;28;20967;-70
2023/05/03 06:29:58;;;;;;;5.83;2.23;;;14.90;96.80;;;;;;5026108;28;20468;-68
2023/05/03 06:32:24;;;;;;;5.50;2.50;;;14.80;97.50;;;;;;5019970;28;20177;-68
2023/05/03 06:34:50;;;;;;;4.23;1.77;;;16.30;95.20;;;;;;5019255;28;20207;-68
2023/05/03 06:37:16;;;;;;;4.50;1.60;;;15.40;95.10;;;;;;5023485;28;20169;-69
2023/05/03 06:39:41;;;;;;;5.70;1.97;;;16.20;94.60;;;;;;5027581;28;20513;-68
2023/05/03 06:42:07;;;;;;;3.37;1.80;;;15.90;93.90;;;;;;5021163;28;20506;-67
2023/05/03 06:44:33;;;;;;;2.40;1.50;;;15.50;93.90;;;;;;5019142;28;20558;-68
2023/05/03 06:46:58;;;;;;;5.73;1.97;;;16.30;93.30;;;;;;5022381;28;20526;-68
2023/05/03 06:49:24;;;;;;;5.30;1.87;;;16.80;93.60;;;;;;5029783;28;20206;-68
2023/05/03 06:51:49;;;;;;;6.00;1.73;;;16.40;92.90;;;;;;5021896;28;20178;-68
2023/05/03 06:54:15;;;;;;;3.50;1.63;;;14.80;92.20;;;;;;5030240;28;20220;-67
2023/05/03 06:56:41;;;;;;;3.30;2.07;;;14.20;92.70;;;;;;5026014;28;20233;-68
2023/05/03 06:59:07;;;;;;;3.27;1.53;;;14.70;93.20;;;;;;5030318;28;20187;-68
2023/05/03 07:01:33;;;;;;;2.83;1.60;;;15.90;93.50;;;;;;5028586;28;20183;-68
2023/05/03 07:03:59;;;;;;;4.20;1.53;;;16.90;91.10;;;;;;5005978;28;20944;-67
2023/05/03 07:06:24;;;;;;;4.30;1.70;;;16.80;90.60;;;;;;5028135;28;20502;-69
2023/05/03 07:08:51;;;;;;;4.63;2.00;;;17.90;89.00;;;;;;5017976;28;20203;-68
2023/05/03 07:11:18;;;;;;;4.50;1.70;;;18.20;85.40;;;;;;5029552;28;20689;-68
2023/05/03 07:13:44;;;;;;;4.10;1.77;;;18.10;87.70;;;;;;5018914;28;20928;-67
2023/05/03 07:16:09;;;;;;;4.37;1.90;;;17.40;88.10;;;;;;5022593;28;20409;-68
2023/05/03 07:18:35;;;;;;;3.03;1.80;;;17.50;88.40;;;;;;5027128;28;20179;-68
2023/05/03 07:21:04;;;;;;;4.30;1.90;;;16.80;88.00;;;;;;5022290;28;20326;-69
2023/05/03 07:23:30;;;;;;;5.07;1.50;;;18.50;86.10;;;;;;5025286;28;20202;-68
2023/05/03 07:25:56;;;;;;;3.53;1.60;;;17.10;86.20;;;;;;5014163;28;20768;-69
2023/05/03 07:28:22;;;;;;;3.73;2.73;;;17.40;87.70;;;;;;5030350;28;20190;-68
2023/05/03 07:30:47;;;;;;;2.83;1.60;;;17.20;85.50;;;;;;5019082;28;20175;-67
2023/05/03 07:33:13;;;;;;;2.27;1.43;;;16.30;84.40;;;;;;5014777;28;20502;-68
2023/05/03 07:35:38;;;;;;;3.27;1.20;;;15.70;90.20;;;;;;5015380;28;20171;-67
2023/05/03 07:38:04;;;;;;;5.43;1.83;;;15.90;87.90;;;;;;5022287;28;20262;-69
2023/05/03 07:40:32;;;;;;;4.60;1.70;;;16.40;85.20;;;;;;5030297;28;20171;-70
2023/05/03 07:43:00;;;;;;;2.20;1.33;;;16.90;84.50;;;;;;5018124;28;20191;-69
2023/05/03 07:45:26;;;;;;;1.83;1.30;;;17.90;81.70;;;;;;5028707;28;20412;-70
2023/05/03 07:47:53;;;;;;;3.90;1.57;;;19.20;78.90;;;;;;5023882;28;20528;-67
2023/05/03 07:50:19;;;;;;;2.77;1.37;;;18.80;81.00;;;;;;5030354;28;20175;-69
2023/05/03 07:52:44;;;;;;;3.63;1.70;;;19.00;76.90;;;;;;5020768;28;20429;-68
2023/05/03 07:55:10;;;;;;;3.30;1.37;;;18.10;76.10;;;;;;5014843;28;20171;-68
2023/05/03 07:57:36;;;;;;;2.50;1.70;;;16.50;79.20;;;;;;5028455;28;20182;-69
2023/05/03 08:00:04;;;;;;;2.33;1.87;;;17.00;82.70;;;;;;5031929;28;20533;-68
2023/05/03 08:02:30;;;;;;;2.33;1.60;;;17.80;81.00;;;;;;5034384;28;20186;-69
2023/05/03 08:04:55;;;;;;;3.57;2.07;;;15.40;82.60;;;;;;5017998;28;20416;-68
2023/05/03 08:07:22;;;;;;;3.27;1.33;;;16.80;79.90;;;;;;5030083;28;20188;-69
2023/05/03 08:09:48;;;;;;;4.50;1.93;;;16.30;84.70;;;;;;5020588;28;20233;-68
2023/05/03 08:12:13;;;;;;;3.17;2.13;;;16.90;85.00;;;;;;5028202;28;20936;-68
2023/05/03 08:14:40;;;;;;;3.00;1.83;;;17.40;81.50;;;;;;5028120;28;20426;-69
2023/05/03 08:17:05;;;;;;;3.93;2.50;;;17.80;82.10;;;;;;5023662;28;20175;-69
2023/05/03 08:19:31;;;;;;;3.80;1.80;;;17.90;82.10;;;;;;5029256;28;21004;-69
2023/05/03 08:21:57;;;;;;;4.80;2.13;;;19.10;77.10;;;;;;5018190;28;20211;-69
2023/05/03 08:24:23;;;;;;;5.80;2.10;;;17.80;74.70;;;;;;5033509;28;20520;-69
2023/05/03 08:26:49;;;;;;;2.40;1.53;;;16.20;80.50;;;;;;5032661;28;20172;-68
2023/05/03 08:29:15;;;;;;;3.53;1.50;;;16.70;83.00;;;;;;5027782;28;20457;-69
2023/05/03 08:31:41;;;;;;;3.20;1.13;;;17.40;82.50;;;;;;5033635;28;20445;-69
2023/05/03 08:34:09;;;;;;;5.60;1.63;;;18.30;80.20;;;;;;5023969;28;20480;-69
2023/05/03 08:36:37;;;;;;;2.40;2.10;;;19.20;78.40;;;;;;5028764;28;20414;-69
2023/05/03 08:39:05;;;;;;;6.23;2.47;;;18.70;76.90;;;;;;5026150;28;20410;-68
2023/05/03 08:41:32;;;;;;;3.30;1.60;;;18.30;79.10;;;;;;5033616;28;20782;-69
2023/05/03 08:43:59;;;;;;;2.27;2.07;;;18.00;77.50;;;;;;5019910;28;20488;-68
2023/05/03 08:46:25;;;;;;;2.40;2.20;;;18.50;79.40;;;;;;5028633;28;20457;-68
2023/05/03 08:48:52;;;;;;;3.70;1.80;;;18.40;77.10;;;;;;5033813;28;20818;-67
2023/05/03 08:51:19;;;;;;;3.00;1.80;;;18.00;75.20;;;;;;5023192;28;20426;-69
2023/05/03 08:53:45;;;;;;;6.13;1.90;;;17.20;78.20;;;;;;5028457;28;20536;-69
2023/05/03 08:56:22;;;;;;;3.17;2.10;;;17.40;81.80;;;;;;5031936;28;20560;-69
2023/05/03 08:58:47;;;;;;;3.40;2.10;;;17.60;75.60;;;;;;5025147;28;20178;-68
2023/05/03 09:01:13;;;;;;;6.30;2.03;;;17.70;76.50;;;;;;5032835;28;20414;-68
2023/05/03 09:03:39;;;;;;;3.83;1.97;;;18.40;74.20;;;;;;5016272;28;20312;-68
2023/05/03 09:06:24;;;;;;;3.50;1.60;;;17.10;76.10;;;;;;5030040;28;20176;-69
2023/05/03 09:08:50;;;;;;;5.70;2.17;;;17.50;76.50;;;;;;5021611;28;20688;-68
2023/05/03 09:11:21;;;;;;;4.00;1.80;;;16.70;79.00;;;;;;5032543;28;20503;-69
2023/05/03 09:13:47;;;;;;;3.00;1.60;;;17.60;75.20;;;;;;5018561;28;20429;-69
2023/05/03 09:16:28;;;;;;;3.43;1.50;;;17.70;78.20;;;;;;5008965;28;20479;-69
2023/05/03 09:19:01;;;;;;;4.13;1.90;;;18.50;76.60;;;;;;5028912;28;20488;-68
2023/05/03 09:21:33;;;;;;;3.80;1.93;;;18.00;76.60;;;;;;5025582;28;20398;-68
2023/05/03 09:23:58;;;;;;;3.53;1.60;;;17.80;74.50;;;;;;5008604;28;20443;-68
2023/05/03 09:26:34;;;;;;;1.83;1.40;;;17.70;74.90;;;;;;5032852;28;20431;-67
2023/05/03 09:29:03;;;;;;;3.87;1.90;;;17.70;73.40;;;;;;5011040;28;20205;-69
2023/05/03 09:31:31;;;;;;;4.00;2.47;;;16.10;78.80;;;;;;5022411;28;20437;-68
2023/05/03 09:33:57;;;;;;;4.47;2.33;;;15.80;77.80;;;;;;5008133;28;20864;-69
2023/05/03 09:36:23;;;;;;;3.87;1.70;;;16.40;77.30;;;;;;5014517;28;20410;-70
2023/05/03 09:38:50;;;;;;;9.10;2.17;;;18.10;73.70;;;;;;5009305;28;20802;-68
2023/05/03 09:41:25;;;;;;;3.93;2.10;;;18.40;70.80;;;;;;5019840;28;20491;-69
2023/05/03 09:43:54;;;;;;;2.80;1.93;;;16.90;76.10;;;;;;5011122;28;20523;-67
2023/05/03 09:46:20;;;;;;;2.30;1.77;;;16.70;77.60;;;;;;5007627;28;20438;-69
2023/05/03 09:48:45;;;;;;;3.37;2.30;;;16.20;76.70;;;;;;5017809;28;20507;-69
2023/05/03 09:51:11;;;;;;;3.07;2.13;;;15.20;79.40;;;;;;5013454;28;20232;-69
2023/05/03 09:53:38;;;;;;;8.20;2.47;;;16.10;78.90;;;;;;5021717;28;20642;-69
2023/05/03 09:56:11;;;;;;;4.30;1.63;;;16.40;78.30;;;;;;5012926;28;20913;-66
2023/05/03 09:58:37;;;;;;;8.33;2.43;;;16.10;78.10;;;;;;5006125;28;20470;-68
2023/05/03 10:01:03;;;;;;;6.00;1.90;;;16.10;78.60;;;;;;5009017;28;20507;-67
2023/05/03 10:03:38;;;;;;;5.70;2.47;;;16.60;79.70;;;;;;5014708;28;20546;-67
2023/05/03 10:06:09;;;;;;;4.20;1.80;;;16.20;75.20;;;;;;5011075;28;20856;-67
2023/05/03 10:08:55;;;;;;;3.70;2.00;;;16.60;73.00;;;;;;5012478;28;20550;-66
2023/05/03 10:11:25;;;;;;;5.63;1.50;;;16.00;77.70;;;;;;5024507;28;20407;-64
2023/05/03 10:13:51;;;;;;;3.50;2.40;;;15.60;79.20;;;;;;5014117;28;20422;-67
2023/05/03 10:16:22;;;;;;;4.77;1.80;;;14.90;76.10;;;;;;5023464;28;20400;-67
2023/05/03 10:19:22;;;;;;;2.63;1.70;;;14.90;76.80;;;;;;5018685;28;20283;-67
2023/05/03 10:22:06;;;;;;;4.07;1.93;;;14.80;77.90;;;;;;4989971;28;20425;-67
2023/05/03 10:24:55;;;;;;;2.57;2.37;;;15.60;75.70;;;;;;5000005;28;20459;-68
2023/05/03 10:27:21;;;;;;;4.40;2.50;;;15.70;76.50;;;;;;5022812;28;20411;-67
2023/05/03 10:29:50;;;;;;;2.00;1.60;;;15.50;77.00;;;;;;5018759;28;20831;-66
2023/05/03 10:32:41;;;;;;;5.50;2.83;;;14.80;79.60;;;;;;5021507;28;20172;-67
2023/05/03 10:35:09;;;;;;;4.37;2.57;;;14.50;78.10;;;;;;5023515;28;20414;-67
2023/05/03 10:37:35;;;;;;;4.00;2.37;;;14.60;80.00;;;;;;5007947;28;20510;-67
2023/05/03 10:40:39;;;;;;;4.37;2.07;;;14.40;79.60;;;;;;5023693;28;20796;-68
2023/05/03 10:43:05;;;;;;;3.10;2.00;;;15.00;79.20;;;;;;5016159;28;20922;-67
2023/05/03 10:45:32;;;;;;;4.07;2.57;;;15.00;75.60;;;;;;5025231;28;20417;-68
2023/05/03 10:48:09;;;;;;;3.20;2.60;;;14.80;76.30;;;;;;5021975;28;20192;-68
2023/05/03 10:50:35;;;;;;;4.00;1.83;;;14.70;77.40;;;;;;5026719;28;20418;-67
2023/05/03 10:53:01;;;;;;;4.30;1.60;;;14.80;76.80;;;;;;5023245;28;20529;-67
2023/05/03 10:55:27;;;;;;;3.10;1.93;;;14.70;78.40;;;;;;5022070;28;20458;-67
2023/05/03 10:57:55;;;;;;;2.93;1.57;;;14.90;78.40;;;;;;5006086;28;20635;-67
2023/05/03 11:00:32;;;;;;;2.50;1.80;;;14.70;78.10;;;;;;5021384;28;20238;-68
2023/05/03 11:03:33;;;;;;;4.10;2.67;;;14.70;75.90;;;;;;5017742;28;20442;-68
2023/05/03 11:05:59;;;;;;;4.53;1.83;;;14.60;78.30;;;;;;5027381;28;20810;-64
2023/05/03 11:08:25;;;;;;;4.20;1.97;;;13.70;77.10;;;;;;5022549;28;20458;-68
2023/05/03 11:10:58;;;;;;;2.53;2.00;;;13.90;76.50;;;;;;5027469;28;20197;-68
2023/05/03 11:13:23;;;;;;;3.97;2.10;;;14.20;76.30;;;;;;5024822;28;20191;-66
2023/05/03 11:15:49;;;;;;;2.73;1.83;;;14.10;77.80;;;;;;5019578;28;20757;-66
2023/05/03 11:18:15;;;;;;;4.60;1.53;;;14.00;80.10;;;;;;5022824;28;20187;-67
2023/05/03 11:20:41;;;;;;;2.53;2.07;;;14.40;78.80;;;;;;5007725;28;20184;-67
2023/05/03 11:23:06;;;;;;;4.07;1.73;;;14.50;78.10;;;;;;5023569;28;20509;-66
2023/05/03 11:25:32;;;;;;;3.50;2.37;;;14.70;76.10;;;;;;5019581;28;20230;-68
2023/05/03 11:28:00;;;;;;;4.13;1.80;;;14.80;78.30;;;;;;5024964;28;20219;-67
2023/05/03 11:30:27;;;;;;;3.73;1.60;;;14.70;79.00;;;;;;5001038;28;20423;-67
2023/05/03 11:32:53;;;;;;;2.33;1.50;;;14.80;78.40;;;;;;5017457;28;20435;-67
2023/05/03 11:35:22;;;;;;;4.10;2.20;;;14.60;78.70;;;;;;5021269;28;20943;-68
2023/05/03 11:37:48;;;;;;;3.93;1.93;;;15.00;80.10;;;;;;5017253;28;20235;-69
2023/05/03 11:40:18;;;;;;;6.20;2.10;;;14.80;80.20;;;;;;5023681;28;20688;-67
2023/05/03 11:42:54;;;;;;;3.83;1.97;;;15.00;80.10;;;;;;5009145;28;20208;-67
2023/05/03 11:45:23;;;;;;;4.27;2.40;;;14.60;78.90;;;;;;5012483;28;20750;-68
2023/05/03 11:47:50;;;;;;;6.20;2.20;;;14.90;78.70;;;;;;5021050;28;20493;-67
2023/05/03 11:50:16;;;;;;;3.83;2.67;;;14.60;77.30;;;;;;5026364;28;20510;-67
2023/05/03 11:52:42;;;;;;;2.00;1.60;;;14.40;78.00;;;;;;5023330;28;20483;-68
2023/05/03 11:55:09;;;;;;;4.53;2.23;;;14.50;77.50;;;;;;5022363;28;20521;-67
2023/05/03 11:57:36;;;;;;;1.73;1.50;;;14.70;77.30;;;;;;5019699;28;20660;-67
2023/05/03 12:00:15;;;;;;;6.20;1.97;;;14.70;79.20;;;;;;5019805;28;20477;-67
2023/05/03 12:02:46;;;;;;;4.53;2.03;;;14.60;79.80;;;;;;5025526;28;20402;-66
2023/05/03 12:05:12;;;;;;;2.20;2.00;;;14.60;78.30;;;;;;5019818;28;20410;-68
2023/05/03 12:07:39;;;;;;;3.33;2.17;;;14.60;78.30;;;;;;5026139;28;20469;-68
2023/05/03 12:10:18;;;;;;;3.67;2.37;;;14.70;77.90;;;;;;5023156;28;20444;-68
2023/05/03 12:12:58;;;;;;;8.27;2.13;;;14.70;78.10;;;;;;5022103;28;20520;-66
2023/05/03 12:15:32;;;;;;;4.70;2.10;;;14.60;79.20;;;;;;5017929;28;20403;-68
2023/05/03 12:17:59;;;;;;;2.00;1.80;;;14.70;79.60;;;;;;5025899;28;20421;-67
2023/05/03 12:20:29;;;;;;;4.00;3.00;;;14.90;79.70;;;;;;5021047;28;20506;-69
2023/05/03 12:23:02;;;;;;;5.40;1.83;;;15.10;79.90;;;;;;5026421;28;20435;-68
2023/05/03 12:25:29;;;;;;;3.23;2.10;;;15.00;79.10;;;;;;5022001;28;20410;-68
2023/05/03 12:27:56;;;;;;;6.17;2.10;;;15.10;78.40;;;;;;5023806;28;20500;-69
2023/05/03 12:30:22;;;;;;;2.60;2.00;;;15.00;77.30;;;;;;5026218;28;20433;-68
2023/05/03 12:32:49;;;;;;;5.60;3.40;;;15.00;77.80;;;;;;5021181;28;20431;-66
2023/05/03 12:35:15;;;;;;;2.70;1.83;;;15.00;77.00;;;;;;5005015;28;20434;-68
2023/05/03 12:37:40;;;;;;;2.73;1.73;;;15.10;78.20;;;;;;5010964;28;20422;-68
2023/05/03 12:40:07;;;;;;;3.00;2.50;;;14.80;77.90;;;;;;5015258;28;20410;-68
2023/05/03 12:42:33;;;;;;;8.37;3.10;;;15.20;79.30;;;;;;5021667;28;20172;-68
2023/05/03 12:44:59;;;;;;;16.33;11.53;;;15.40;76.60;;;;;;5022460;28;20411;-68
2023/05/03 12:47:27;;;;;;;4.63;2.00;;;15.60;80.40;;;;;;5011259;28;20549;-67
2023/05/03 12:49:53;;;;;;;5.43;2.40;;;15.20;78.20;;;;;;5007534;28;20929;-68
2023/05/03 12:52:21;;;;;;;8.67;3.10;;;15.30;79.20;;;;;;5018408;28;20422;-68